Bennett, CO (80102)

12:23 AM MDT on March 23, 2017 (GMT -0600)
Dutch Valley | | Change Station
Active Advisory: Fire Weather Warning

Elev 5653 ft 39.72 °N, 104.48 °W | Updated 1 second ago

Clear
Clear
51.3 °F
Feels Like 51.3 °F
N
17.0
Wind Variable Wind from South
Gusts 18.0 mph

Today
High -- | Low -- °F
--% Chance of Precip.
Yesterday
High -- | Low -- °F
Precip. -- in
Pressure 29.79 in
Visibility 10.0 miles
Clouds Clear
Dew Point 39 °F
Humidity 62%
Rainfall 0.00 in
Snow Depth Not available.
6:55 AM 7:13 PM
Waning Crescent, 26% visible
METAR KFTG 230615Z AUTO 18010KT 10SM CLR 12/03 A2979 RMK AO2
Pressure 29.79 in
Visibility 10.0 miles
Clouds Clear
Dew Point 39 °F
Humidity 62%
Rainfall 0.00 in
Snow Depth Not available.
6:55 AM 7:13 PM
Waning Crescent, 26% visible
METAR KFTG 230615Z AUTO 18010KT 10SM CLR 12/03 A2979 RMK AO2

Get Your Daily Forecast Email!

Thanks for signing up!

Be on the lookout for a verification email in your inbox.

You'll start receiving severe weather alerts in your inbox..

×

10-Day Weather Forecast

Almanac

Astronomy

Mar. 23, 2017 Rise Set
Actual Time
Civil Twilight
Nautical Twilight
Astronomical Twilight
Moon
Length of Visible Light
Length of Day
Tomorrow will be .
, % of the Moon is Illuminated

Today's Extremes

State Highs State Lows

Community

WunderPhotos

Upload Photos

1,962,540 photos uploaded!

WunderBlog® & News

Nearby

Air Quality

  Air Quality AQ Index Pollutant
Not available.

Snow Depth

Station Depth Elevation

Earthquake Activity

City Distance Mag. Time & Date
Minimum magnitude displayed is 2.5.

Earthquake Activity

City Distance Mag. Time & Date
Minimum magnitude displayed is 2.5.

Coastal Water Temperatures

Place Temperature

Stations

Nearby Weather Stations

Station Location Temp. Windchill Dew Point Humidity Wind Precip. Elev Updated Type
                   

Watches & Warnings

Fire Weather Warning
Issued: 12:06 AM MDT Mar. 23, 2017 – National Weather Service

... Red flag warning remains in effect from noon today to 6 PM MDT
this evening for wind and low relative humidity for the Palmer
Divide and adjacent plains including Denver and areas east and
southeast...

* affected area... fire weather zones 216... 239... 240... 241...
245... 246... 247 and 249.

* Timing... gusty southerly winds will develop by midday Thursday
the afternoon with the relative humidities dropping to around
10 percent by early afternoon.

* Winds... southwest 15 to 20 mph with gusts up to 35 mph.

* Relative humidity... as low as 10 percent.

* Impacts... conditions will be favorable for rapid ignition of
dry vegetation, fire growth and spread. Any outdoor burning is
strongly discouraged, and in some areas, illegal. Check with
local law enforcement.

Precautionary/preparedness actions...

A red flag warning means that critical fire weather conditions
are either occurring now... .or will shortly. A combination of
strong winds... low relative humidity... and warm temperatures can
contribute to extreme fire behavior.